KTNU/TNU METAR and TAF weather

Enter ICAO airport designator
Station Type Date Time Source
KTNU METAR 2022/10/01 08:15 UTC NOAA

KTNU 010815Z AUTO 08004KT 10SM CLR 11/07 A3016 RMK A01


Station Type Date Time Source
KTNU Decoded METAR 2022/10/01 08:15 UTC NOAA

Newton Municipal, IA, United States (KTNU) 41-41N 093-01W
Oct 01, 2022 - 04:15 AM EDT / 2022.10.01 0815 UTC
Wind: from the E (080 degrees) at 5 MPH (4 KT):0
Visibility: 10 mile(s):0
Sky conditions: clear
Temperature: 51 F (11 C)
Dew Point: 44 F (7 C)
Relative Humidity: 76%
Pressure (altimeter): 30.16 in. Hg (1021 hPa)
ob: KTNU 010815Z AUTO 08004KT 10SM CLR 11/07 A3016 RMK A01
cycle: 8

Station Type Date Time Source
KTNU TAF UTC NOAA

Error!

Example: see airport list